This is the latest recevied weather packets stored in our database for station/object OE3UKW. If no packets are shown the sender has not sent any weather packets the latest 10 day(s).
| Time | Temp. | Humidity | Pressure | Rain* | Wind** | Luminosity | Snow |
|---|---|---|---|---|---|---|---|
| 1777095071 | 8.89° C | 58% | 1017.6 hPa | 0 mm | - | 115 W/m² | - |
| 1777094471 | 8.89° C | 59% | 1017.7 hPa | 0 mm | - | 150 W/m² | - |
| 1777093871 | 8.33° C | 60% | 1017.7 hPa | 0 mm | - | 154 W/m² | - |
| 1777093271 | 7.78° C | 60% | 1017.6 hPa | 0 mm | - | 121 W/m² | - |
| 1777092671 | 7.78° C | 62% | 1017.6 hPa | 0 mm | - | 84 W/m² | - |
| 1777092071 | 7.22° C | 62% | 1017.5 hPa | 0 mm | - | 56 W/m² | - |
| 1777091471 | 7.22° C | 63% | 1017.4 hPa | 0 mm | - | 43 W/m² | - |
| 1777090871 | 6.67° C | 63% | 1017.2 hPa | 0 mm | - | 28 W/m² | - |
| 1777090270 | 6.67° C | 63% | 1017.2 hPa | 0 mm | - | 18 W/m² | - |
| 1777089671 | 6.67° C | 63% | 1017.2 hPa | 0 mm | - | 11 W/m² | - |
| 1777089071 | 6.67° C | 62% | 1017.2 hPa | 0 mm | - | 6 W/m² | - |
| 1777088471 | 6.67° C | 62% | 1017.4 hPa | 0 mm | - | 0 W/m² | - |
| 1777087871 | 7.22° C | 61% | 1017.2 hPa | 0 mm | - | 0 W/m² | - |
| 1777087271 | 7.22° C | 60% | 1017.3 hPa | 0 mm | - | 0 W/m² | - |
| 1777086686 | 7.22° C | 59% | 1017.4 hPa | 0 mm | - | 0 W/m² | - |
| 1777086070 | 7.78° C | 59% | 1017.3 hPa | 0 mm | - | 0 W/m² | - |
| 1777085470 | 7.78° C | 58% | 1017.3 hPa | 0 mm | - | 0 W/m² | - |
| 1777084870 | 7.78° C | 58% | 1017.2 hPa | 0 mm | - | 0 W/m² | - |
| 1777084270 | 7.78° C | 57% | 1017.2 hPa | 0 mm | - | 0 W/m² | - |
| 1777083670 | 9.44° C | 48% | 1017.6 hPa | 0 mm | - | 0 W/m² | - |
| 1777083070 | 8.33° C | 55% | 1017.6 hPa | 0 mm | - | 0 W/m² | - |
| 1777082470 | 8.33° C | 55% | 1017.5 hPa | 0 mm | - | 0 W/m² | - |
| 1777081871 | 8.33° C | 54% | 1017.5 hPa | 0 mm | - | 0 W/m² | - |
| 1777081270 | 8.33° C | 54% | 1017.5 hPa | 0 mm | - | 0 W/m² | - |
| 1777080670 | 8.89° C | 54% | 1017.4 hPa | 0 mm | - | 0 W/m² | - |
* Rain latest hour (hover to see other rain measurements)
** Current wind speed in m/s (hover to see current wind gust speed)